createdAt,value
2023-02-20T00:01:36.934Z,101310.66
2023-02-20T00:04:05.009Z,101322.13
2023-02-20T00:06:32.500Z,101330.22
2023-02-20T00:09:00.514Z,101276.44
2023-02-20T00:11:28.143Z,101337.12
2023-02-20T00:13:55.615Z,101334.72
2023-02-20T00:16:22.995Z,101338.22
2023-02-20T00:18:50.843Z,101354.97
2023-02-20T00:21:18.441Z,101314.28
2023-02-20T00:23:45.980Z,101366.72
2023-02-20T00:26:15.282Z,101375.41
2023-02-20T00:28:44.214Z,101376.56
2023-02-20T00:31:16.041Z,101377.31
2023-02-20T00:33:44.130Z,101380.62
2023-02-20T00:36:17.505Z,101386.84
2023-02-20T00:38:46.602Z,101384.47
2023-02-20T00:41:14.405Z,101349.63
2023-02-20T00:43:42.160Z,101403.34
2023-02-20T00:46:15.100Z,101407.38
2023-02-20T00:48:43.775Z,101356.03
2023-02-20T00:51:27.282Z,101425.91
2023-02-20T00:53:55.085Z,101425.12
2023-02-20T00:56:22.598Z,101431.94
2023-02-20T00:58:50.075Z,101424.28
2023-02-20T01:01:18.770Z,101376.37
2023-02-20T01:03:46.452Z,101422.63
2023-02-20T01:06:14.222Z,101428.69
2023-02-20T01:08:42.660Z,101430.78
2023-02-20T01:11:10.158Z,101419.75
2023-02-20T01:13:37.686Z,101430.56
2023-02-20T01:16:08.226Z,101433.44
2023-02-20T01:18:36.132Z,101431.00
2023-02-20T01:21:03.743Z,101437.44
2023-02-20T01:23:31.582Z,101384.53
2023-02-20T01:25:59.098Z,101437.84
2023-02-20T01:28:26.553Z,101439.09
2023-02-20T01:30:54.366Z,101433.87
2023-02-20T01:33:22.109Z,101439.56
2023-02-20T01:35:49.539Z,101444.19
2023-02-20T01:38:17.271Z,101392.53
2023-02-20T01:40:49.435Z,101449.47
2023-02-20T01:43:17.858Z,101446.25
2023-02-20T01:45:46.019Z,101438.88
2023-02-20T01:48:23.425Z,101446.66
2023-02-20T01:50:57.249Z,101453.63
2023-02-20T01:53:28.899Z,101453.81
2023-02-20T01:56:02.467Z,101461.81
2023-02-20T01:58:51.249Z,101473.16
2023-02-20T02:01:19.444Z,101476.06
2023-02-20T02:03:51.907Z,101463.34
2023-02-20T02:06:19.657Z,101462.59
2023-02-20T02:08:47.555Z,101468.84
2023-02-20T02:11:20.476Z,101464.47
2023-02-20T02:13:48.672Z,101453.75
2023-02-20T02:16:31.440Z,101456.28
2023-02-20T02:19:20.495Z,101456.50
2023-02-20T02:22:07.410Z,101463.47
2023-02-20T02:24:55.769Z,101454.34
2023-02-20T02:27:44.918Z,101463.09
2023-02-20T02:30:48.220Z,101471.81
2023-02-20T02:33:41.567Z,101457.31
2023-02-20T02:36:28.298Z,101457.94
2023-02-20T02:39:17.699Z,101456.38
2023-02-20T02:41:54.711Z,101465.34
2023-02-20T02:44:38.059Z,101410.37
2023-02-20T02:47:13.530Z,101469.62
2023-02-20T02:49:59.397Z,101456.44
2023-02-20T02:52:38.614Z,101480.19
2023-02-20T02:55:08.016Z,101487.31
2023-02-20T02:57:35.719Z,101481.13
2023-02-20T03:00:16.924Z,101495.44
2023-02-20T03:02:54.003Z,101495.06
2023-02-20T03:05:27.101Z,101497.87
2023-02-20T03:07:58.694Z,101504.13
2023-02-20T03:10:32.708Z,101510.25
2023-02-20T03:13:05.418Z,101457.09
2023-02-20T03:15:38.869Z,101515.66
2023-02-20T03:18:17.953Z,101537.41
2023-02-20T03:20:49.479Z,101532.91
2023-02-20T03:23:42.855Z,101528.63
2023-02-20T03:26:22.465Z,101533.97
2023-02-20T03:28:59.068Z,101542.25
2023-02-20T03:31:44.533Z,101539.78
2023-02-20T03:34:39.562Z,101540.06
2023-02-20T03:37:33.260Z,101543.59
2023-02-20T03:40:25.126Z,101546.38
2023-02-20T03:43:17.763Z,101531.13
2023-02-20T03:45:47.949Z,101484.87
2023-02-20T03:48:52.637Z,101545.63
2023-02-20T03:51:41.016Z,101552.31
2023-02-20T03:54:11.264Z,101490.31
2023-02-20T03:56:44.651Z,101496.22
2023-02-20T03:59:15.315Z,101552.75
2023-02-20T04:01:46.784Z,101562.87
2023-02-20T04:04:23.507Z,101575.09
2023-02-20T04:06:53.210Z,101571.59
2023-02-20T04:09:27.672Z,101515.88
2023-02-20T04:12:03.134Z,101570.69
2023-02-20T04:14:32.257Z,101572.31
2023-02-20T04:17:03.933Z,101556.25
2023-02-20T04:19:33.755Z,101578.28
2023-02-20T04:22:10.746Z,101582.84
2023-02-20T04:25:31.113Z,101575.47
2023-02-20T04:27:58.891Z,101573.00
2023-02-20T04:30:27.775Z,101575.13
2023-02-20T04:32:55.553Z,101527.84
2023-02-20T04:35:23.678Z,101573.25
2023-02-20T04:37:51.663Z,101573.03
2023-02-20T04:40:22.731Z,101567.19
2023-02-20T04:42:50.574Z,101573.13
2023-02-20T04:45:18.933Z,101561.16
2023-02-20T04:47:46.926Z,101576.31
2023-02-20T04:50:21.291Z,101588.34
2023-02-20T04:52:49.430Z,101597.00
2023-02-20T04:55:17.566Z,101583.94
2023-02-20T04:57:44.950Z,101586.03
2023-02-20T05:00:17.186Z,101583.25
2023-02-20T05:02:44.866Z,101588.66
2023-02-20T05:05:19.589Z,101588.19
2023-02-20T05:07:47.899Z,101581.88
2023-02-20T05:10:17.944Z,101587.94
2023-02-20T05:12:45.406Z,101574.84
2023-02-20T05:15:14.141Z,101556.63
2023-02-20T05:17:41.554Z,101556.03
2023-02-20T05:20:10.055Z,101559.63
2023-02-20T05:22:40.018Z,101552.41
2023-02-20T05:25:08.230Z,101561.94
2023-02-20T05:27:35.727Z,101547.19
2023-02-20T05:30:04.545Z,101544.31
2023-02-20T05:32:32.458Z,101505.03
2023-02-20T05:34:59.885Z,101501.78
2023-02-20T05:37:28.315Z,101547.59
2023-02-20T05:39:55.924Z,101561.53
2023-02-20T05:42:23.527Z,101569.34
2023-02-20T05:44:51.296Z,101568.50
2023-02-20T05:47:18.711Z,101577.06
2023-02-20T05:49:47.198Z,101572.78
2023-02-20T05:52:15.014Z,101576.09
2023-02-20T05:54:42.593Z,101581.28
2023-02-20T05:57:11.440Z,101586.53
2023-02-20T05:59:39.657Z,101596.75
2023-02-20T06:02:07.206Z,101597.31
2023-02-20T06:04:34.938Z,101608.03
2023-02-20T06:07:02.419Z,101628.31
2023-02-20T06:09:29.878Z,101629.00
2023-02-20T06:11:57.864Z,101638.50
2023-02-20T06:14:26.960Z,101639.00
2023-02-20T06:16:56.419Z,101639.66
2023-02-20T06:19:25.069Z,101642.81
2023-02-20T06:21:53.883Z,101643.41
2023-02-20T06:24:21.803Z,101642.41
2023-02-20T06:26:50.182Z,101640.56
2023-02-20T06:29:19.080Z,101641.06
2023-02-20T06:31:47.204Z,101652.47
2023-02-20T06:34:16.298Z,101649.53
2023-02-20T06:36:44.193Z,101659.72
2023-02-20T06:39:13.996Z,101662.97
2023-02-20T06:41:41.858Z,101662.69
2023-02-20T06:44:09.398Z,101661.56
2023-02-20T06:46:36.942Z,101665.62
2023-02-20T06:49:04.893Z,101657.44
2023-02-20T06:51:33.800Z,101664.28
2023-02-20T06:54:02.706Z,101666.53
2023-02-20T06:56:53.154Z,101668.75
2023-02-20T06:59:21.212Z,101669.19
2023-02-20T07:01:49.992Z,101668.75
2023-02-20T07:04:22.891Z,101606.63
2023-02-20T07:06:50.922Z,101660.75
2023-02-20T07:09:20.272Z,101652.09
2023-02-20T07:11:50.535Z,101653.16
2023-02-20T07:14:18.265Z,101647.78
2023-02-20T07:16:45.675Z,101659.38
2023-02-20T07:19:13.256Z,101666.50
2023-02-20T07:21:41.272Z,101658.47
2023-02-20T07:24:08.841Z,101665.03
2023-02-20T07:26:38.914Z,101660.53
2023-02-20T07:29:07.649Z,101663.47
2023-02-20T07:31:35.258Z,101658.03
2023-02-20T07:34:02.897Z,101670.69
2023-02-20T07:36:34.701Z,101630.41
2023-02-20T07:39:03.680Z,101684.59
2023-02-20T07:41:37.470Z,101688.13
2023-02-20T07:44:05.669Z,101692.59
2023-02-20T07:46:34.298Z,101684.37
2023-02-20T07:49:04.177Z,101681.63
2023-02-20T07:51:32.920Z,101684.00
2023-02-20T07:54:01.404Z,101664.88
2023-02-20T07:56:29.930Z,101621.53
2023-02-20T07:59:00.756Z,101679.59
2023-02-20T08:01:29.461Z,101680.19
2023-02-20T08:03:57.197Z,101680.34
2023-02-20T08:06:24.659Z,101693.69
2023-02-20T08:08:52.649Z,101688.38
2023-02-20T08:11:22.703Z,101640.47
2023-02-20T08:13:50.733Z,101701.53
2023-02-20T08:16:18.280Z,101704.81
2023-02-20T08:18:46.120Z,101702.97
2023-02-20T08:21:13.682Z,101707.84
2023-02-20T08:23:41.107Z,101702.72
2023-02-20T08:26:08.924Z,101716.62
2023-02-20T08:28:36.588Z,101706.09
2023-02-20T08:31:05.152Z,101705.50
2023-02-20T08:33:33.172Z,101694.78
2023-02-20T08:36:00.826Z,101697.41
2023-02-20T08:38:37.450Z,101704.91
2023-02-20T08:41:07.811Z,101704.75
2023-02-20T08:43:36.911Z,101708.28
2023-02-20T08:46:08.110Z,101697.81
2023-02-20T08:48:36.768Z,101679.97
2023-02-20T08:51:05.434Z,101688.63
2023-02-20T08:53:33.832Z,101684.56
2023-02-20T08:56:05.001Z,101649.22
2023-02-20T08:58:32.901Z,101691.47
2023-02-20T09:01:00.544Z,101689.72
2023-02-20T09:03:29.467Z,101691.59
2023-02-20T09:05:57.167Z,101702.78
2023-02-20T09:08:24.968Z,101680.94
2023-02-20T09:10:53.008Z,101671.78
2023-02-20T09:13:21.183Z,101661.31
2023-02-20T09:15:48.596Z,101610.97
2023-02-20T09:18:16.706Z,101654.97
2023-02-20T09:20:44.762Z,101600.38
2023-02-20T09:23:12.230Z,101643.63
2023-02-20T09:25:39.675Z,101642.69
2023-02-20T09:28:08.983Z,101644.13
2023-02-20T09:30:36.587Z,101646.81
2023-02-20T09:33:04.361Z,101633.00
2023-02-20T09:35:32.285Z,101628.72
2023-02-20T09:37:59.828Z,101627.81
2023-02-20T09:40:30.890Z,101615.69
2023-02-20T09:43:26.860Z,101614.62
2023-02-20T09:46:19.396Z,101605.72
2023-02-20T09:49:06.787Z,101618.84
2023-02-20T09:51:38.864Z,101615.09
2023-02-20T09:54:18.497Z,101604.59
2023-02-20T09:56:50.869Z,101611.31
2023-02-20T09:59:25.212Z,101613.00
2023-02-20T10:02:14.580Z,101611.56
2023-02-20T10:05:00.016Z,101609.37
2023-02-20T10:07:32.445Z,101608.75
2023-02-20T10:10:02.737Z,101612.03
2023-02-20T10:12:38.543Z,101603.00
2023-02-20T10:15:57.092Z,101601.97
2023-02-20T10:18:46.252Z,101598.06
2023-02-20T10:21:40.418Z,101591.72
2023-02-20T10:24:31.351Z,101543.97
2023-02-20T10:27:25.004Z,101577.25
2023-02-20T10:29:55.717Z,101583.03
2023-02-20T10:32:44.121Z,101560.19
2023-02-20T10:35:16.735Z,101557.44
2023-02-20T10:37:48.526Z,101566.66
2023-02-20T10:40:28.420Z,101551.94
2023-02-20T10:43:42.576Z,101557.88
2023-02-20T10:46:48.485Z,101548.53
2023-02-20T10:49:25.016Z,101549.88
2023-02-20T10:51:56.691Z,101549.84
2023-02-20T10:54:44.834Z,101549.16
2023-02-20T10:57:28.732Z,101543.72
2023-02-20T11:00:13.620Z,101533.06
2023-02-20T11:02:49.208Z,101525.63
2023-02-20T11:05:22.520Z,101523.66
2023-02-20T11:07:50.162Z,101484.44
2023-02-20T11:10:21.100Z,101533.41
2023-02-20T11:12:51.975Z,101529.84
2023-02-20T11:15:24.142Z,101531.03
2023-02-20T11:17:57.099Z,101524.59
2023-02-20T11:20:38.681Z,101519.78
2023-02-20T11:23:06.638Z,101519.09
2023-02-20T11:25:37.379Z,101511.91
2023-02-20T11:28:08.105Z,101503.75
2023-02-20T11:30:39.678Z,101499.56
2023-02-20T11:33:23.707Z,101503.88
2023-02-20T11:35:56.345Z,101496.47
2023-02-20T11:38:23.870Z,101491.56
2023-02-20T11:40:54.929Z,101487.00
2023-02-20T11:43:28.895Z,101480.19
2023-02-20T11:46:15.799Z,101464.84
2023-02-20T11:49:07.390Z,101475.13
2023-02-20T11:51:35.176Z,101480.31
2023-02-20T11:54:16.330Z,101473.91
2023-02-20T11:56:56.955Z,101417.63
2023-02-20T11:59:29.930Z,101460.59
2023-02-20T12:02:15.895Z,101458.47
2023-02-20T12:05:09.040Z,101465.50
2023-02-20T12:07:40.417Z,101457.16
2023-02-20T12:10:23.097Z,101408.19
2023-02-20T12:12:51.829Z,101451.44
2023-02-20T12:15:25.285Z,101446.34
2023-02-20T12:18:01.393Z,101423.41
2023-02-20T12:20:31.224Z,101441.50
2023-02-20T12:23:26.220Z,101435.72
2023-02-20T12:26:12.228Z,101435.66
2023-02-20T12:29:04.586Z,101436.63
2023-02-20T12:31:41.166Z,101430.19
2023-02-20T12:34:23.681Z,101420.22
2023-02-20T12:37:07.963Z,101427.53
2023-02-20T12:39:41.542Z,101432.44
2023-02-20T12:42:20.691Z,101411.78
2023-02-20T12:45:05.930Z,101411.44
2023-02-20T12:47:40.437Z,101401.47
2023-02-20T12:50:40.409Z,101402.50
2023-02-20T12:53:33.286Z,101396.81
2023-02-20T12:56:13.818Z,101386.03
2023-02-20T12:58:44.805Z,101373.06
2023-02-20T13:01:15.541Z,101377.84
2023-02-20T13:03:52.362Z,101314.84
2023-02-20T13:06:29.369Z,101356.25
2023-02-20T13:09:21.635Z,101355.78
2023-02-20T13:11:56.415Z,101353.28
2023-02-20T13:14:53.087Z,101358.06
2023-02-20T13:18:05.686Z,101348.69
2023-02-20T13:20:44.758Z,101333.97
2023-02-20T13:23:15.095Z,101333.44
2023-02-20T13:25:47.987Z,101323.16
2023-02-20T13:28:45.744Z,101306.97
2023-02-20T13:31:18.697Z,101311.84
2023-02-20T13:34:11.575Z,101303.66
2023-02-20T13:36:43.676Z,101298.31
2023-02-20T13:39:20.415Z,101300.19
2023-02-20T13:41:54.704Z,101305.69
2023-02-20T13:44:28.254Z,101294.06
2023-02-20T13:47:00.381Z,101286.44
2023-02-20T13:49:50.293Z,101280.47
2023-02-20T13:52:49.343Z,101279.34
2023-02-20T13:55:24.031Z,101282.16
2023-02-20T13:58:18.076Z,101290.50
2023-02-20T14:00:54.204Z,101277.44
2023-02-20T14:03:29.072Z,101265.78
2023-02-20T14:06:10.136Z,101216.91
2023-02-20T14:08:41.784Z,101214.69
2023-02-20T14:11:35.461Z,101264.41
2023-02-20T14:14:09.389Z,101257.31
2023-02-20T14:16:41.023Z,101259.41
2023-02-20T14:19:16.439Z,101268.88
2023-02-20T14:21:43.840Z,101261.66
2023-02-20T14:24:25.104Z,101260.28
2023-02-20T14:26:56.126Z,101250.81
2023-02-20T14:29:33.747Z,101246.47
2023-02-20T14:32:03.127Z,101238.16
2023-02-20T14:34:48.809Z,101245.69
2023-02-20T14:37:22.671Z,101240.66
2023-02-20T14:40:10.787Z,101229.94
2023-02-20T14:42:46.730Z,101224.38
2023-02-20T14:45:21.035Z,101216.16
2023-02-20T14:47:56.924Z,101217.13
2023-02-20T14:50:30.181Z,101235.91
2023-02-20T14:53:12.891Z,101178.59
2023-02-20T14:55:41.410Z,101216.16
2023-02-20T14:58:14.787Z,101205.59
2023-02-20T15:00:44.533Z,101192.91
2023-02-20T15:03:30.325Z,101191.41
2023-02-20T15:06:03.953Z,101194.41
2023-02-20T15:08:37.810Z,101198.00
2023-02-20T15:11:08.846Z,101192.84
2023-02-20T15:13:42.348Z,101187.56
2023-02-20T15:16:17.294Z,101126.34
2023-02-20T15:18:47.844Z,101171.00
2023-02-20T15:21:43.364Z,101161.66
2023-02-20T15:24:25.951Z,101156.94
2023-02-20T15:26:54.048Z,101160.59
2023-02-20T15:29:27.503Z,101170.59
2023-02-20T15:31:58.781Z,101166.59
2023-02-20T15:34:29.434Z,101166.69
2023-02-20T15:36:58.904Z,101174.62
2023-02-20T15:39:27.271Z,101172.97
2023-02-20T15:44:23.823Z,101147.50
2023-02-20T15:46:51.500Z,101144.84
2023-02-20T15:49:20.823Z,101148.87
2023-02-20T15:51:52.353Z,101148.47
2023-02-20T15:54:22.275Z,101118.91
2023-02-20T15:56:51.763Z,101164.41
2023-02-20T15:59:19.358Z,101154.75
2023-02-20T16:01:47.007Z,101152.37
2023-02-20T16:04:16.934Z,101159.53
2023-02-20T16:06:45.473Z,101111.13
2023-02-20T16:09:13.214Z,101104.41
2023-02-20T16:11:47.273Z,101151.38
2023-02-20T16:14:15.728Z,101145.56
2023-02-20T16:16:46.290Z,101147.31
2023-02-20T16:19:16.902Z,101147.25
2023-02-20T16:21:58.120Z,101141.06
2023-02-20T16:24:26.031Z,101126.53
2023-02-20T16:26:54.311Z,101109.16
2023-02-20T16:29:32.422Z,101142.59
2023-02-20T16:32:00.534Z,101137.34
2023-02-20T16:34:33.699Z,101140.38
2023-02-20T16:37:03.210Z,101130.00
2023-02-20T16:39:30.983Z,101135.28
2023-02-20T16:41:59.568Z,101133.38
2023-02-20T16:44:39.013Z,101118.72
2023-02-20T16:47:10.354Z,101122.81
2023-02-20T16:49:40.096Z,101114.09
2023-02-20T16:52:32.159Z,101108.59
2023-02-20T16:55:01.291Z,101103.78
2023-02-20T16:57:29.558Z,101097.81
2023-02-20T17:00:00.618Z,101095.41
2023-02-20T17:02:31.610Z,101095.91
2023-02-20T17:05:00.274Z,101093.03
2023-02-20T17:07:28.199Z,101083.94
2023-02-20T17:09:56.939Z,101093.38
2023-02-20T17:12:25.933Z,101086.59
2023-02-20T17:14:54.338Z,101089.81
2023-02-20T17:17:22.202Z,101041.44
2023-02-20T17:19:55.347Z,101089.81
2023-02-20T17:22:24.939Z,101093.28
2023-02-20T17:24:53.338Z,101082.28
2023-02-20T17:27:22.944Z,101034.63
2023-02-20T17:29:53.245Z,101083.59
2023-02-20T17:32:20.938Z,101069.72
2023-02-20T17:34:48.730Z,101058.75
2023-02-20T17:37:17.022Z,101072.00
2023-02-20T17:39:44.974Z,101065.19
2023-02-20T17:42:12.963Z,101070.34
2023-02-20T17:44:40.949Z,101072.72
2023-02-20T17:47:11.697Z,101073.44
2023-02-20T17:49:41.686Z,101069.81
2023-02-20T17:52:10.996Z,101070.50
2023-02-20T17:54:39.661Z,101067.06
2023-02-20T17:57:07.398Z,101066.53
2023-02-20T17:59:40.111Z,101063.56
2023-02-20T18:02:10.892Z,101067.25
2023-02-20T18:04:38.996Z,101050.87
2023-02-20T18:07:07.549Z,101047.03
2023-02-20T18:09:35.455Z,101041.31
2023-02-20T18:12:06.283Z,101035.66
2023-02-20T18:14:34.032Z,101031.84
2023-02-20T18:17:01.860Z,100983.44
2023-02-20T18:19:30.046Z,101021.09
2023-02-20T18:21:57.838Z,101022.38
2023-02-20T18:24:25.948Z,101027.72
2023-02-20T18:26:54.509Z,101012.94
2023-02-20T18:29:25.154Z,101003.28
2023-02-20T18:31:54.203Z,101007.31
2023-02-20T18:34:23.387Z,100999.44
2023-02-20T18:36:50.915Z,100988.34
2023-02-20T18:39:18.583Z,100997.97
2023-02-20T18:41:52.148Z,100991.31
2023-02-20T18:44:20.572Z,100986.37
2023-02-20T18:46:48.957Z,100980.28
2023-02-20T18:49:16.745Z,100969.09
2023-02-20T18:51:45.365Z,100966.59
2023-02-20T18:54:24.500Z,100965.47
2023-02-20T18:56:52.967Z,100977.59
2023-02-20T18:59:22.979Z,100986.66
2023-02-20T19:01:50.812Z,100970.94
2023-02-20T19:04:18.371Z,100970.94
2023-02-20T19:06:47.060Z,100916.44
2023-02-20T19:09:17.644Z,100965.69
2023-02-20T19:11:49.791Z,100904.94
2023-02-20T19:14:18.448Z,100974.09
2023-02-20T19:16:57.322Z,100960.25
2023-02-20T19:19:28.227Z,100964.66
2023-02-20T19:21:57.751Z,100974.00
2023-02-20T19:24:26.019Z,100964.34
2023-02-20T19:26:53.814Z,100955.91
2023-02-20T19:29:21.660Z,100951.94
2023-02-20T19:31:49.615Z,100954.44
2023-02-20T19:34:17.499Z,100965.75
2023-02-20T19:36:45.224Z,100948.69
2023-02-20T19:39:14.434Z,100955.97
2023-02-20T19:41:42.531Z,100948.03
2023-02-20T19:44:15.354Z,100938.03
2023-02-20T19:46:44.311Z,100936.25
2023-02-20T19:49:13.096Z,100933.62
2023-02-20T19:51:46.984Z,100936.38
2023-02-20T19:54:22.317Z,100922.19
2023-02-20T19:56:52.436Z,100926.88
2023-02-20T19:59:21.229Z,100930.81
2023-02-20T20:01:54.516Z,100919.84
2023-02-20T20:04:26.218Z,100932.25
2023-02-20T20:06:54.639Z,100924.38
2023-02-20T20:09:35.525Z,100890.72
2023-02-20T20:12:26.165Z,100922.75
2023-02-20T20:14:56.121Z,100922.59
2023-02-20T20:17:24.053Z,100923.22
2023-02-20T20:19:59.274Z,100921.19
2023-02-20T20:22:29.437Z,100917.50
2023-02-20T20:24:57.583Z,100918.44
2023-02-20T20:27:25.637Z,100917.38
2023-02-20T20:29:54.992Z,100918.44
2023-02-20T20:32:22.944Z,100915.13
2023-02-20T20:34:53.200Z,100910.94
2023-02-20T20:37:24.100Z,100901.75
2023-02-20T20:39:58.323Z,100917.81
2023-02-20T20:42:28.121Z,100906.62
2023-02-20T20:44:57.783Z,100906.84
2023-02-20T20:47:30.638Z,100905.44
2023-02-20T20:49:59.933Z,100900.41
2023-02-20T20:52:30.864Z,100898.88
2023-02-20T20:55:01.226Z,100905.06
2023-02-20T20:57:32.134Z,100898.25
2023-02-20T21:00:00.588Z,100895.16
2023-02-20T21:02:28.785Z,100891.22
2023-02-20T21:05:09.384Z,100887.97
2023-02-20T21:07:39.503Z,100867.91
2023-02-20T21:10:08.787Z,100838.72
2023-02-20T21:12:39.940Z,100878.41
2023-02-20T21:15:09.583Z,100830.97
2023-02-20T21:17:37.477Z,100870.34
2023-02-20T21:20:07.972Z,100858.88
2023-02-20T21:22:37.831Z,100871.88
2023-02-20T21:25:06.030Z,100868.75
2023-02-20T21:27:33.822Z,100876.84
2023-02-20T21:30:04.039Z,100874.34
2023-02-20T21:32:32.621Z,100876.25
2023-02-20T21:35:00.399Z,100873.88
2023-02-20T21:37:28.209Z,100865.03
2023-02-20T21:39:55.912Z,100808.72
2023-02-20T21:42:42.090Z,100859.06
2023-02-20T21:45:09.961Z,100803.09
2023-02-20T21:47:37.467Z,100855.13
2023-02-20T21:50:08.229Z,100840.56
2023-02-20T21:52:37.177Z,100837.00
2023-02-20T21:55:08.972Z,100833.47
2023-02-20T21:57:36.923Z,100833.56
2023-02-20T22:00:06.903Z,100830.22
2023-02-20T22:02:35.368Z,100825.06
2023-02-20T22:05:03.768Z,100821.53
2023-02-20T22:07:50.157Z,100820.06
2023-02-20T22:10:39.514Z,100810.41
2023-02-20T22:13:25.734Z,100751.84
2023-02-20T22:16:12.105Z,100795.28
2023-02-20T22:18:57.791Z,100794.66
2023-02-20T22:21:44.634Z,100803.50
2023-02-20T22:24:38.257Z,100792.72
2023-02-20T22:27:27.637Z,100781.66
2023-02-20T22:30:15.118Z,100783.97
2023-02-20T22:33:01.830Z,100725.19
2023-02-20T22:35:48.109Z,100774.56
2023-02-20T22:38:34.270Z,100765.28
2023-02-20T22:41:20.030Z,100769.81
2023-02-20T22:44:06.427Z,100765.59
2023-02-20T22:46:52.376Z,100763.94
2023-02-20T22:49:38.843Z,100769.72
2023-02-20T22:52:25.381Z,100759.47
2023-02-20T22:55:11.477Z,100770.19
2023-02-20T22:57:57.291Z,100705.41
2023-02-20T23:00:43.805Z,100754.41
2023-02-20T23:03:30.246Z,100759.47
2023-02-20T23:06:19.048Z,100743.88
2023-02-20T23:09:07.837Z,100748.41
2023-02-20T23:11:55.749Z,100738.66
2023-02-20T23:14:42.227Z,100734.16
2023-02-20T23:17:36.380Z,100737.84
2023-02-20T23:20:26.254Z,100733.88
2023-02-20T23:23:13.521Z,100729.69
2023-02-20T23:25:59.988Z,100733.03
2023-02-20T23:28:46.582Z,100727.19
2023-02-20T23:31:33.975Z,100718.72
2023-02-20T23:34:21.564Z,100670.53
2023-02-20T23:37:10.808Z,100673.12
2023-02-20T23:39:57.362Z,100719.06
2023-02-20T23:42:43.299Z,100721.69
2023-02-20T23:45:30.003Z,100721.06
2023-02-20T23:48:16.256Z,100710.72
2023-02-20T23:51:02.606Z,100728.50
2023-02-20T23:53:48.558Z,100728.19
2023-02-20T23:56:34.845Z,100718.59
2023-02-20T23:59:20.729Z,100725.28
